This is the latest recevied weather packets stored in our database for station/object N5RPG. If no packets are shown the sender has not sent any weather packets the latest 10 day(s).
| Time | Temp. | Humidity | Pressure | Rain* | Wind** | Luminosity | Snow |
|---|---|---|---|---|---|---|---|
| 1777768556 | 20.56° C | 48% | 1019.5 hPa | 0 mm | - | 21 W/m² | - |
| 1777768253 | 21.11° C | 45% | 1019.5 hPa | 0 mm | - | 25 W/m² | - |
| 1777767950 | 21.11° C | 44% | 1019.6 hPa | 0 mm | - | 29 W/m² | - |
| 1777767647 | 21.67° C | 43% | 1019.5 hPa | 0 mm | - | 32 W/m² | - |
| 1777767343 | 21.67° C | 43% | 1019.6 hPa | 0 mm | - | 36 W/m² | - |
| 1777767041 | 21.67° C | 43% | 1019.5 hPa | 0 mm | - | 39 W/m² | - |
| 1777766738 | 22.22° C | 42% | 1019.5 hPa | 0 mm | - | 42 W/m² | - |
| 1777766435 | 22.78° C | 40% | 1019.4 hPa | 0 mm | - | 44 W/m² | - |
| 1777766131 | 23.33° C | 38% | 1019.3 hPa | 0 mm | - | 47 W/m² | - |
| 1777765830 | 23.33° C | 39% | 1019.5 hPa | 0 mm | - | 62 W/m² | - |
| 1777765525 | 23.89° C | 37% | 1019.5 hPa | 0 mm | - | 52 W/m² | - |
| 1777765224 | 24.44° C | 36% | 1019.4 hPa | 0 mm | - | 51 W/m² | - |
| 1777764924 | 25° C | 36% | 1019.4 hPa | 0 mm | - | 133 W/m² | - |
| 1777764621 | 25° C | 36% | 1019.4 hPa | 0 mm | - | 172 W/m² | - |
| 1777764317 | 24.44° C | 36% | 1019.5 hPa | 0 mm | - | 192 W/m² | - |
| 1777764014 | 23.89° C | 36% | 1019.5 hPa | 0 mm | - | 212 W/m² | - |
| 1777763711 | 24.44° C | 35% | 1019.4 hPa | 0 mm | - | 232 W/m² | - |
| 1777763409 | 25° C | 37% | 1019.4 hPa | 0 mm | - | 261 W/m² | - |
| 1777763107 | 25° C | 38% | 1019.2 hPa | 0 mm | - | 273 W/m² | - |
| 1777762805 | 24.44° C | 40% | 1019.5 hPa | 0 mm | - | 293 W/m² | - |
| 1777762501 | 23.89° C | 39% | 1019.5 hPa | 0 mm | - | 317 W/m² | - |
| 1777762198 | 22.78° C | 42% | 1019.4 hPa | 0 mm | - | 339 W/m² | - |
| 1777761894 | 22.22° C | 43% | 1019.4 hPa | 0 mm | - | 85 W/m² | - |
| 1777761591 | 22.78° C | 41% | 1019.5 hPa | 0 mm | - | 80 W/m² | - |
| 1777761289 | 23.33° C | 41% | 1019.6 hPa | 0 mm | - | 96 W/m² | - |
* Rain latest hour (hover to see other rain measurements)
** Current wind speed in m/s (hover to see current wind gust speed)